createdAt,value
2023-07-29T00:01:57.777Z,54.70
2023-07-29T00:04:24.738Z,54.07
2023-07-29T00:06:51.601Z,54.64
2023-07-29T00:09:18.459Z,54.14
2023-07-29T00:11:45.416Z,54.68
2023-07-29T00:14:12.295Z,54.23
2023-07-29T00:16:39.581Z,54.02
2023-07-29T00:19:06.655Z,54.33
2023-07-29T00:21:33.876Z,54.01
2023-07-29T00:24:01.022Z,54.11
2023-07-29T00:26:27.855Z,54.04
2023-07-29T00:28:54.864Z,54.02
2023-07-29T00:31:21.701Z,54.00
2023-07-29T00:33:48.575Z,54.56
2023-07-29T00:36:15.471Z,54.11
2023-07-29T00:38:42.339Z,54.33
2023-07-29T00:41:09.193Z,54.59
2023-07-29T00:43:36.097Z,54.33
2023-07-29T00:46:03.185Z,54.05
2023-07-29T00:48:30.190Z,54.43
2023-07-29T00:50:57.076Z,54.04
2023-07-29T00:53:23.956Z,54.00
2023-07-29T00:55:50.898Z,54.01
2023-07-29T00:58:17.826Z,54.02
2023-07-29T01:00:44.712Z,53.92
2023-07-29T01:03:11.612Z,53.99
2023-07-29T01:05:38.618Z,54.04
2023-07-29T01:08:05.558Z,54.06
2023-07-29T01:10:32.574Z,54.53
2023-07-29T01:12:59.412Z,53.88
2023-07-29T01:15:26.267Z,54.45
2023-07-29T01:17:53.256Z,54.46
2023-07-29T01:20:20.155Z,54.53
2023-07-29T01:22:47.024Z,53.91
2023-07-29T01:25:14.124Z,54.60
2023-07-29T01:27:41.035Z,54.04
2023-07-29T01:30:07.885Z,54.28
2023-07-29T01:32:35.057Z,54.44
2023-07-29T01:35:01.946Z,53.96
2023-07-29T01:37:28.930Z,53.98
2023-07-29T01:39:55.917Z,53.98
2023-07-29T01:42:22.772Z,53.98
2023-07-29T01:44:49.791Z,54.49
2023-07-29T01:47:16.590Z,54.34
2023-07-29T01:49:43.518Z,54.51
2023-07-29T01:52:10.415Z,53.97
2023-07-29T01:54:37.273Z,54.01
2023-07-29T01:57:04.136Z,54.11
2023-07-29T01:59:31.139Z,54.25
2023-07-29T02:01:57.938Z,54.34
2023-07-29T02:04:24.804Z,54.31
2023-07-29T02:06:51.730Z,54.47
2023-07-29T02:09:18.643Z,54.51
2023-07-29T02:11:45.719Z,54.46
2023-07-29T02:14:12.632Z,54.28
2023-07-29T02:16:40.003Z,53.90
2023-07-29T02:19:07.264Z,53.88
2023-07-29T02:21:34.317Z,54.04
2023-07-29T02:24:01.288Z,53.86
2023-07-29T02:26:28.125Z,54.31
2023-07-29T02:28:55.260Z,54.21
2023-07-29T02:31:22.188Z,54.03
2023-07-29T02:33:49.173Z,53.86
2023-07-29T02:36:16.128Z,53.89
2023-07-29T02:38:43.022Z,54.26
2023-07-29T02:41:09.915Z,53.88
2023-07-29T02:43:36.751Z,54.53
2023-07-29T02:46:03.831Z,54.32
2023-07-29T02:48:30.971Z,54.38
2023-07-29T02:50:57.886Z,54.32
2023-07-29T02:53:24.857Z,54.62
2023-07-29T02:55:51.842Z,53.97
2023-07-29T02:58:18.852Z,53.85
2023-07-29T03:00:45.794Z,54.16
2023-07-29T03:03:12.907Z,53.85
2023-07-29T03:05:39.937Z,54.10
2023-07-29T03:08:06.758Z,54.35
2023-07-29T03:10:33.629Z,54.27
2023-07-29T03:13:00.619Z,54.04
2023-07-29T03:15:27.479Z,54.19
2023-07-29T03:17:54.517Z,54.00
2023-07-29T03:20:21.442Z,53.83
2023-07-29T03:22:48.431Z,54.01
2023-07-29T03:25:15.339Z,54.36
2023-07-29T03:27:42.381Z,54.33
2023-07-29T03:30:09.235Z,54.10
2023-07-29T03:32:36.667Z,53.80
2023-07-29T03:35:03.780Z,54.36
2023-07-29T03:37:30.754Z,54.19
2023-07-29T03:39:57.584Z,54.18
2023-07-29T03:42:24.643Z,54.17
2023-07-29T03:44:51.650Z,53.82
2023-07-29T03:47:18.546Z,53.71
2023-07-29T03:49:45.623Z,54.05
2023-07-29T03:52:12.552Z,53.78
2023-07-29T03:54:39.480Z,54.03
2023-07-29T03:57:06.500Z,54.04
2023-07-29T03:59:33.409Z,54.08
2023-07-29T04:02:00.361Z,54.12
2023-07-29T04:04:27.317Z,53.90
2023-07-29T04:06:54.295Z,53.60
2023-07-29T04:09:21.188Z,53.80
2023-07-29T04:11:48.070Z,54.25
2023-07-29T04:14:14.978Z,54.23
2023-07-29T04:16:42.037Z,54.04
2023-07-29T04:19:08.865Z,54.00
2023-07-29T04:21:35.900Z,53.67
2023-07-29T04:24:02.802Z,53.98
2023-07-29T04:26:29.802Z,54.20
2023-07-29T04:28:56.843Z,54.06
2023-07-29T04:31:23.761Z,54.11
2023-07-29T04:33:50.730Z,53.64
2023-07-29T04:36:17.704Z,53.85
2023-07-29T04:38:44.741Z,54.08
2023-07-29T04:41:11.844Z,53.70
2023-07-29T04:43:38.674Z,53.85
2023-07-29T04:46:05.590Z,53.87
2023-07-29T04:48:32.478Z,53.76
2023-07-29T04:50:59.370Z,54.03
2023-07-29T04:53:26.467Z,54.03
2023-07-29T04:55:53.293Z,54.00
2023-07-29T04:58:20.148Z,53.62
2023-07-29T05:00:47.068Z,53.71
2023-07-29T05:03:14.083Z,53.87
2023-07-29T05:05:41.072Z,53.81
2023-07-29T05:08:08.001Z,53.84
2023-07-29T05:10:34.995Z,53.92
2023-07-29T05:13:01.951Z,53.77
2023-07-29T05:15:28.818Z,53.70
2023-07-29T05:17:55.687Z,53.71
2023-07-29T05:20:22.480Z,53.83
2023-07-29T05:22:49.305Z,53.63
2023-07-29T05:25:16.156Z,53.52
2023-07-29T05:27:43.229Z,53.90
2023-07-29T05:30:10.205Z,53.77
2023-07-29T05:32:37.205Z,53.92
2023-07-29T05:35:04.093Z,53.69
2023-07-29T05:37:31.095Z,53.80
2023-07-29T05:39:57.933Z,54.20
2023-07-29T05:42:24.813Z,53.93
2023-07-29T05:44:51.716Z,53.78
2023-07-29T05:47:18.654Z,54.16
2023-07-29T05:49:45.652Z,54.13
2023-07-29T05:52:12.505Z,53.78
2023-07-29T05:54:39.364Z,53.78
2023-07-29T05:57:06.306Z,53.77
2023-07-29T05:59:33.358Z,54.28
2023-07-29T06:02:00.241Z,54.02
2023-07-29T06:04:27.227Z,54.03
2023-07-29T06:06:54.112Z,53.93
2023-07-29T06:09:20.959Z,54.22
2023-07-29T06:11:47.818Z,53.97
2023-07-29T06:14:14.908Z,53.94
2023-07-29T06:16:41.817Z,54.06
2023-07-29T06:19:08.786Z,53.96
2023-07-29T06:21:35.773Z,54.19
2023-07-29T06:24:02.741Z,54.20
2023-07-29T06:26:29.666Z,54.23
2023-07-29T06:28:56.520Z,54.14
2023-07-29T06:31:23.503Z,54.33
2023-07-29T06:33:50.572Z,54.60
2023-07-29T06:36:17.487Z,54.46
2023-07-29T06:38:44.473Z,54.75
2023-07-29T06:41:14.788Z,54.36
2023-07-29T06:43:42.604Z,54.32
2023-07-29T06:46:09.493Z,54.46
2023-07-29T06:48:36.518Z,54.56
2023-07-29T06:51:03.532Z,54.53
2023-07-29T06:53:32.500Z,54.48
2023-07-29T06:56:00.855Z,54.64
2023-07-29T06:58:27.808Z,54.81
2023-07-29T07:00:56.566Z,54.81
2023-07-29T07:03:24.629Z,54.81
2023-07-29T07:05:51.734Z,54.82
2023-07-29T07:08:18.689Z,55.06
2023-07-29T07:10:45.627Z,54.62
2023-07-29T07:13:12.522Z,54.96
2023-07-29T07:15:39.336Z,54.98
2023-07-29T07:18:06.594Z,54.98
2023-07-29T07:20:33.480Z,55.05
2023-07-29T07:23:00.459Z,55.10
2023-07-29T07:25:27.304Z,54.98
2023-07-29T07:27:54.293Z,55.12
2023-07-29T07:30:21.199Z,55.21
2023-07-29T07:32:48.110Z,55.27
2023-07-29T07:35:14.984Z,55.27
2023-07-29T07:37:41.989Z,55.11
2023-07-29T07:40:08.800Z,55.15
2023-07-29T07:42:35.683Z,55.17
2023-07-29T07:45:02.629Z,55.11
2023-07-29T07:47:29.609Z,55.37
2023-07-29T07:49:56.610Z,55.25
2023-07-29T07:52:23.580Z,55.32
2023-07-29T07:54:50.561Z,55.24
2023-07-29T07:57:17.535Z,55.24
2023-07-29T07:59:44.410Z,55.23
2023-07-29T08:02:11.259Z,55.23
2023-07-29T08:04:38.126Z,55.04
2023-07-29T08:07:05.031Z,55.09
2023-07-29T08:09:32.054Z,55.50
2023-07-29T08:11:58.967Z,55.26
2023-07-29T08:14:25.847Z,55.17
2023-07-29T08:16:52.988Z,55.47
2023-07-29T08:19:22.472Z,55.28
2023-07-29T08:21:49.728Z,55.35
2023-07-29T08:24:16.773Z,55.29
2023-07-29T08:26:43.804Z,55.55
2023-07-29T08:29:10.669Z,55.23
2023-07-29T08:31:37.771Z,55.64
2023-07-29T08:34:04.772Z,55.44
2023-07-29T08:36:31.857Z,55.50
2023-07-29T08:38:58.745Z,55.24
2023-07-29T08:41:25.630Z,55.41
2023-07-29T08:43:52.612Z,55.38
2023-07-29T08:46:19.574Z,55.45
2023-07-29T08:48:46.678Z,55.32
2023-07-29T08:51:13.593Z,55.28
2023-07-29T08:53:40.481Z,55.65
2023-07-29T08:56:07.356Z,55.35
2023-07-29T08:58:34.289Z,55.39
2023-07-29T09:01:01.367Z,55.25
2023-07-29T09:03:28.392Z,55.08
2023-07-29T09:05:55.303Z,55.15
2023-07-29T09:08:22.191Z,55.43
2023-07-29T09:10:49.016Z,55.49
2023-07-29T09:13:15.880Z,55.17
2023-07-29T09:15:42.874Z,55.41
2023-07-29T09:18:09.801Z,55.44
2023-07-29T09:20:36.778Z,55.40
2023-07-29T09:23:03.735Z,55.40
2023-07-29T09:25:30.578Z,55.34
2023-07-29T09:27:57.692Z,55.46
2023-07-29T09:30:24.721Z,55.37
2023-07-29T09:32:51.921Z,55.70
2023-07-29T09:35:18.830Z,55.55
2023-07-29T09:37:45.757Z,55.81
2023-07-29T09:40:12.734Z,55.60
2023-07-29T09:42:39.556Z,55.41
2023-07-29T09:45:06.660Z,55.53
2023-07-29T09:47:33.662Z,55.46
2023-07-29T09:50:00.584Z,55.59
2023-07-29T09:52:27.546Z,55.39
2023-07-29T09:54:54.400Z,55.61
2023-07-29T09:57:21.223Z,55.29
2023-07-29T09:59:48.234Z,55.49
2023-07-29T10:02:15.277Z,55.33
2023-07-29T10:04:42.210Z,55.36
2023-07-29T10:07:09.120Z,55.43
2023-07-29T10:09:36.094Z,55.41
2023-07-29T10:12:03.119Z,55.41
2023-07-29T10:14:30.032Z,55.29
2023-07-29T10:16:56.898Z,55.16
2023-07-29T10:19:27.120Z,55.33
2023-07-29T10:21:54.125Z,55.44
2023-07-29T10:24:20.941Z,55.20
2023-07-29T10:26:47.859Z,55.51
2023-07-29T10:29:14.798Z,55.45
2023-07-29T10:31:41.623Z,55.29
2023-07-29T10:34:08.498Z,55.24
2023-07-29T10:36:35.644Z,55.49
2023-07-29T10:39:02.940Z,55.28
2023-07-29T10:41:29.739Z,55.62
2023-07-29T10:43:56.614Z,55.26
2023-07-29T10:46:23.887Z,55.20
2023-07-29T10:48:50.953Z,55.17
2023-07-29T10:51:17.825Z,55.24
2023-07-29T10:53:44.906Z,55.68
2023-07-29T10:56:11.718Z,55.45
2023-07-29T10:58:38.570Z,55.43
2023-07-29T11:01:05.616Z,55.32
2023-07-29T11:03:32.631Z,55.42
2023-07-29T11:05:59.556Z,55.80
2023-07-29T11:08:26.404Z,55.50
2023-07-29T11:10:53.298Z,55.49
2023-07-29T11:13:20.158Z,55.70
2023-07-29T11:15:47.104Z,55.53
2023-07-29T11:18:14.170Z,55.89
2023-07-29T11:20:41.125Z,55.77
2023-07-29T11:23:08.050Z,55.75
2023-07-29T11:25:35.015Z,55.72
2023-07-29T11:28:04.183Z,55.90
2023-07-29T11:30:33.803Z,55.73
2023-07-29T11:33:00.865Z,55.89
2023-07-29T11:35:27.720Z,55.89
2023-07-29T11:37:54.530Z,55.95
2023-07-29T11:40:21.386Z,55.44
2023-07-29T11:42:48.345Z,55.83
2023-07-29T11:45:17.859Z,55.78
2023-07-29T11:47:45.608Z,55.55
2023-07-29T11:50:12.583Z,55.91
2023-07-29T11:52:39.431Z,55.98
2023-07-29T11:55:06.317Z,55.93
2023-07-29T11:57:33.133Z,56.03
2023-07-29T12:00:00.012Z,56.12
2023-07-29T12:02:26.878Z,56.05
2023-07-29T12:04:53.805Z,55.97
2023-07-29T12:07:20.608Z,55.89
2023-07-29T12:09:47.482Z,56.09
2023-07-29T12:12:14.491Z,56.21
2023-07-29T12:14:41.330Z,55.67
2023-07-29T12:17:08.496Z,56.17
2023-07-29T12:19:35.573Z,55.77
2023-07-29T12:22:02.594Z,56.07
2023-07-29T12:24:29.433Z,56.04
2023-07-29T12:26:56.318Z,56.46
2023-07-29T12:29:23.209Z,56.01
2023-07-29T12:31:50.091Z,56.38
2023-07-29T12:34:16.949Z,56.42
2023-07-29T12:36:43.789Z,56.30
2023-07-29T12:39:10.680Z,56.31
2023-07-29T12:41:37.953Z,56.30
2023-07-29T12:44:05.035Z,56.42
2023-07-29T12:46:32.064Z,56.46
2023-07-29T12:48:58.950Z,56.61
2023-07-29T12:51:25.911Z,56.50
2023-07-29T12:53:52.888Z,56.70
2023-07-29T12:56:19.875Z,56.36
2023-07-29T12:58:46.865Z,56.86
2023-07-29T13:01:13.791Z,56.52
2023-07-29T13:03:40.779Z,56.93
2023-07-29T13:06:07.735Z,56.97
2023-07-29T13:08:34.703Z,56.37
2023-07-29T13:11:01.657Z,57.00
2023-07-29T13:13:28.634Z,56.71
2023-07-29T13:15:55.574Z,57.21
2023-07-29T13:18:22.692Z,56.85
2023-07-29T13:20:49.525Z,57.23
2023-07-29T13:23:16.442Z,56.90
2023-07-29T13:25:43.274Z,57.52
2023-07-29T13:28:10.171Z,57.26
2023-07-29T13:30:37.089Z,57.16
2023-07-29T13:33:04.203Z,57.16
2023-07-29T13:35:31.039Z,57.35
2023-07-29T13:37:57.834Z,57.00
2023-07-29T13:40:24.723Z,57.55
2023-07-29T13:42:54.609Z,57.18
2023-07-29T13:45:21.435Z,57.51
2023-07-29T13:47:48.364Z,57.34
2023-07-29T13:50:15.285Z,57.13
2023-07-29T13:52:42.150Z,57.06
2023-07-29T13:55:09.228Z,57.04
2023-07-29T13:57:36.172Z,57.56
2023-07-29T14:00:03.172Z,57.00
2023-07-29T14:02:30.087Z,57.37
2023-07-29T14:04:56.933Z,57.35
2023-07-29T14:07:24.306Z,57.38
2023-07-29T14:09:51.635Z,57.55
2023-07-29T14:12:18.871Z,57.51
2023-07-29T14:14:46.056Z,57.53
2023-07-29T14:17:12.881Z,57.45
2023-07-29T14:19:39.943Z,57.33
2023-07-29T14:22:06.878Z,57.34
2023-07-29T14:24:33.818Z,56.87
2023-07-29T14:27:00.694Z,57.33
2023-07-29T14:29:27.546Z,57.30
2023-07-29T14:31:54.458Z,57.27
2023-07-29T14:34:21.343Z,57.20
2023-07-29T14:36:48.437Z,56.68
2023-07-29T14:39:15.331Z,56.76
2023-07-29T14:41:42.204Z,56.87
2023-07-29T14:44:09.249Z,57.14
2023-07-29T14:46:36.467Z,57.37
2023-07-29T14:49:03.763Z,57.20
2023-07-29T14:51:30.575Z,57.16
2023-07-29T14:53:57.479Z,57.21
2023-07-29T14:56:24.618Z,56.82
2023-07-29T14:58:51.424Z,57.18
2023-07-29T15:01:18.297Z,57.03
2023-07-29T15:03:47.094Z,56.64
2023-07-29T15:06:14.235Z,56.87
2023-07-29T15:08:41.129Z,57.13
2023-07-29T15:11:08.143Z,56.85
2023-07-29T15:13:35.047Z,56.74
2023-07-29T15:16:01.899Z,56.46
2023-07-29T15:18:28.758Z,56.97
2023-07-29T15:20:55.688Z,56.52
2023-07-29T15:23:22.714Z,56.71
2023-07-29T15:25:49.737Z,56.93
2023-07-29T15:28:16.620Z,56.47
2023-07-29T15:30:44.354Z,56.48
2023-07-29T15:33:11.418Z,56.91
2023-07-29T15:35:38.502Z,56.40
2023-07-29T15:38:08.443Z,56.63
2023-07-29T15:40:35.401Z,56.87
2023-07-29T15:43:03.678Z,56.28
2023-07-29T15:45:30.519Z,56.29
2023-07-29T15:47:57.377Z,56.31
2023-07-29T15:50:24.505Z,56.75
2023-07-29T15:52:51.428Z,56.68
2023-07-29T15:55:18.277Z,56.34
2023-07-29T15:57:45.140Z,56.38
2023-07-29T16:00:11.946Z,56.27
2023-07-29T16:02:38.947Z,56.67
2023-07-29T16:05:05.836Z,56.58
2023-07-29T16:07:32.736Z,56.12
2023-07-29T16:09:59.729Z,56.18
2023-07-29T16:12:26.732Z,56.50
2023-07-29T16:14:53.696Z,56.08
2023-07-29T16:17:20.575Z,56.56
2023-07-29T16:19:50.099Z,56.08
2023-07-29T16:22:17.046Z,56.05
2023-07-29T16:24:43.930Z,56.05
2023-07-29T16:27:10.810Z,56.29
2023-07-29T16:29:37.916Z,56.63
2023-07-29T16:32:04.828Z,56.21
2023-07-29T16:34:31.690Z,56.01
2023-07-29T16:36:58.529Z,55.80
2023-07-29T16:39:25.613Z,56.40
2023-07-29T16:42:04.765Z,55.93
2023-07-29T16:44:32.957Z,55.88
2023-07-29T16:46:59.875Z,55.95
2023-07-29T16:49:26.881Z,56.31
2023-07-29T16:51:53.898Z,56.56
2023-07-29T16:54:20.888Z,55.96
2023-07-29T16:56:47.829Z,55.80
2023-07-29T16:59:14.666Z,55.90
2023-07-29T17:01:41.627Z,56.30
2023-07-29T17:04:08.762Z,55.84
2023-07-29T17:06:35.992Z,56.23
2023-07-29T17:09:03.374Z,55.89
2023-07-29T17:11:30.338Z,55.81
2023-07-29T17:13:57.280Z,55.89
2023-07-29T17:16:24.298Z,55.77
2023-07-29T17:18:51.297Z,55.76
2023-07-29T17:21:18.189Z,55.75
2023-07-29T17:23:45.229Z,55.77
2023-07-29T17:26:12.141Z,55.74
2023-07-29T17:28:39.122Z,55.88
2023-07-29T17:31:06.044Z,56.44
2023-07-29T17:33:32.950Z,55.84
2023-07-29T17:35:59.863Z,56.09
2023-07-29T17:38:26.965Z,55.71
2023-07-29T17:40:53.957Z,56.04
2023-07-29T17:43:20.780Z,55.60
2023-07-29T17:45:47.636Z,56.21
2023-07-29T17:48:14.559Z,56.13
2023-07-29T17:50:41.496Z,55.60
2023-07-29T17:53:08.537Z,56.05
2023-07-29T17:55:35.494Z,55.59
2023-07-29T17:58:02.332Z,55.74
2023-07-29T18:00:29.238Z,55.70
2023-07-29T18:02:56.224Z,55.74
2023-07-29T18:05:23.339Z,55.65
2023-07-29T18:07:50.325Z,55.57
2023-07-29T18:10:17.294Z,55.62
2023-07-29T18:12:44.163Z,55.54
2023-07-29T18:15:11.053Z,55.49
2023-07-29T18:17:37.954Z,55.40
2023-07-29T18:20:04.858Z,55.75
2023-07-29T18:22:31.663Z,55.44
2023-07-29T18:24:58.516Z,55.34
2023-07-29T18:27:25.537Z,55.38
2023-07-29T18:29:52.410Z,55.34
2023-07-29T18:32:19.326Z,55.76
2023-07-29T18:34:46.160Z,55.67
2023-07-29T18:37:12.963Z,55.36
2023-07-29T18:39:39.896Z,55.47
2023-07-29T18:42:06.802Z,55.40
2023-07-29T18:44:33.807Z,55.68
2023-07-29T18:47:00.734Z,55.48
2023-07-29T18:49:27.757Z,55.86
2023-07-29T18:51:57.628Z,55.69
2023-07-29T18:54:24.595Z,55.73
2023-07-29T18:56:51.481Z,56.08
2023-07-29T18:59:18.409Z,55.53
2023-07-29T19:01:45.363Z,55.65
2023-07-29T19:04:12.297Z,55.48
2023-07-29T19:06:39.525Z,55.62
2023-07-29T19:09:06.688Z,55.91
2023-07-29T19:11:33.641Z,55.51
2023-07-29T19:14:00.533Z,56.02
2023-07-29T19:16:27.682Z,55.60
2023-07-29T19:18:54.851Z,55.50
2023-07-29T19:21:21.679Z,55.52
2023-07-29T19:23:48.769Z,55.50
2023-07-29T19:26:15.708Z,55.72
2023-07-29T19:28:45.569Z,55.54
2023-07-29T19:31:14.749Z,55.66
2023-07-29T19:33:41.845Z,55.60
2023-07-29T19:36:08.939Z,55.70
2023-07-29T19:38:35.852Z,56.10
2023-07-29T19:41:02.674Z,55.69
2023-07-29T19:43:29.527Z,56.04
2023-07-29T19:46:35.566Z,56.05
2023-07-29T19:48:43.323Z,55.61
2023-07-29T19:51:10.443Z,55.53
2023-07-29T19:53:37.303Z,55.52
2023-07-29T19:56:04.321Z,55.92
2023-07-29T19:58:31.159Z,55.76
2023-07-29T20:00:58.271Z,55.67
2023-07-29T20:03:25.269Z,55.49
2023-07-29T20:05:52.222Z,55.64
2023-07-29T20:08:19.263Z,55.75
2023-07-29T20:10:46.110Z,55.49
2023-07-29T20:13:12.976Z,55.69
2023-07-29T20:15:40.110Z,55.34
2023-07-29T20:18:07.109Z,55.92
2023-07-29T20:20:33.979Z,55.40
2023-07-29T20:23:00.863Z,55.79
2023-07-29T20:25:28.003Z,55.35
2023-07-29T20:27:54.947Z,55.69
2023-07-29T20:30:21.823Z,55.35
2023-07-29T20:32:48.812Z,55.45
2023-07-29T20:35:15.714Z,55.35
2023-07-29T20:37:42.519Z,55.50
2023-07-29T20:40:09.426Z,55.86
2023-07-29T20:42:36.537Z,55.39
2023-07-29T20:45:03.436Z,55.35
2023-07-29T20:47:30.372Z,55.63
2023-07-29T20:49:57.328Z,55.59
2023-07-29T20:52:24.335Z,55.75
2023-07-29T20:54:51.278Z,55.28
2023-07-29T20:57:18.273Z,55.75
2023-07-29T20:59:45.169Z,55.64
2023-07-29T21:02:11.986Z,55.81
2023-07-29T21:04:38.930Z,55.44
2023-07-29T21:07:05.877Z,55.34
2023-07-29T21:09:32.729Z,55.36
2023-07-29T21:11:59.572Z,55.27
2023-07-29T21:14:26.554Z,55.74
2023-07-29T21:16:53.515Z,55.29
2023-07-29T21:19:20.436Z,55.81
2023-07-29T21:21:47.247Z,55.36
2023-07-29T21:24:14.101Z,55.29
2023-07-29T21:26:41.054Z,55.67
2023-07-29T21:29:08.013Z,55.80
2023-07-29T21:31:35.061Z,55.65
2023-07-29T21:34:01.944Z,55.62
2023-07-29T21:36:28.812Z,55.48
2023-07-29T21:38:55.947Z,55.19
2023-07-29T21:41:22.803Z,55.59
2023-07-29T21:43:49.857Z,55.30
2023-07-29T21:46:16.727Z,55.29
2023-07-29T21:48:43.651Z,55.32
2023-07-29T21:51:10.772Z,55.30
2023-07-29T21:53:37.708Z,55.84
2023-07-29T21:56:04.655Z,55.25
2023-07-29T21:58:31.478Z,55.50
2023-07-29T22:00:58.389Z,55.30
2023-07-29T22:03:25.316Z,55.19
2023-07-29T22:05:52.151Z,55.32
2023-07-29T22:08:19.037Z,55.10
2023-07-29T22:10:46.153Z,55.56
2023-07-29T22:13:13.006Z,55.49
2023-07-29T22:15:39.970Z,55.19
2023-07-29T22:18:06.887Z,55.34
2023-07-29T22:20:33.743Z,55.42
2023-07-29T22:23:00.634Z,55.05
2023-07-29T22:25:27.490Z,55.69
2023-07-29T22:27:54.519Z,55.28
2023-07-29T22:30:26.581Z,55.19
2023-07-29T22:32:53.911Z,55.11
2023-07-29T22:35:20.830Z,55.18
2023-07-29T22:37:47.691Z,55.36
2023-07-29T22:40:14.714Z,54.54
2023-07-29T22:42:41.647Z,54.88
2023-07-29T22:45:08.649Z,54.59
2023-07-29T22:47:35.668Z,54.97
2023-07-29T22:50:02.578Z,54.44
2023-07-29T22:52:29.542Z,54.67
2023-07-29T22:54:56.378Z,54.68
2023-07-29T22:57:23.240Z,54.68
2023-07-29T22:59:50.074Z,54.33
2023-07-29T23:02:17.006Z,54.75
2023-07-29T23:04:43.876Z,54.71
2023-07-29T23:07:10.794Z,54.53
2023-07-29T23:09:37.822Z,54.22
2023-07-29T23:12:04.849Z,54.54
2023-07-29T23:14:31.775Z,54.17
2023-07-29T23:16:58.733Z,54.63
2023-07-29T23:19:25.684Z,54.66
2023-07-29T23:21:52.584Z,54.36
2023-07-29T23:24:19.498Z,54.17
2023-07-29T23:26:46.479Z,54.29
2023-07-29T23:29:13.345Z,54.60
2023-07-29T23:31:40.562Z,54.24
2023-07-29T23:34:07.720Z,54.45
2023-07-29T23:36:34.496Z,54.08
2023-07-29T23:39:01.360Z,54.55
2023-07-29T23:41:28.397Z,54.23
2023-07-29T23:43:55.259Z,54.15
2023-07-29T23:46:22.092Z,54.42
2023-07-29T23:48:49.009Z,54.38
2023-07-29T23:51:15.826Z,54.03
2023-07-29T23:53:42.640Z,53.88
2023-07-29T23:56:09.690Z,54.30
2023-07-29T23:58:36.667Z,54.38
